sensor_id;sensor_type;location;lat;lon;timestamp;P1;durP1;ratioP1;P2;durP2;ratioP2
34805;SDS011;65084;42.196;25.326;2023-06-22T00:02:10;7.18;;;6.38;;
34805;SDS011;65084;42.196;25.326;2023-06-22T00:04:38;7.82;;;7.10;;
34805;SDS011;65084;42.196;25.326;2023-06-22T00:07:06;8.40;;;7.03;;
34805;SDS011;65084;42.196;25.326;2023-06-22T00:09:33;8.55;;;6.97;;
34805;SDS011;65084;42.196;25.326;2023-06-22T00:12:01;7.55;;;6.68;;
34805;SDS011;65084;42.196;25.326;2023-06-22T00:14:28;10.40;;;6.72;;
34805;SDS011;65084;42.196;25.326;2023-06-22T00:16:55;7.32;;;6.72;;
34805;SDS011;65084;42.196;25.326;2023-06-22T00:19:24;7.07;;;6.47;;
34805;SDS011;65084;42.196;25.326;2023-06-22T00:21:52;8.55;;;6.85;;
34805;SDS011;65084;42.196;25.326;2023-06-22T00:24:20;7.10;;;6.40;;
34805;SDS011;65084;42.196;25.326;2023-06-22T00:26:47;10.88;;;6.75;;
34805;SDS011;65084;42.196;25.326;2023-06-22T00:29:15;8.80;;;7.90;;
34805;SDS011;65084;42.196;25.326;2023-06-22T00:31:43;10.88;;;6.55;;
34805;SDS011;65084;42.196;25.326;2023-06-22T00:34:11;8.32;;;7.72;;
34805;SDS011;65084;42.196;25.326;2023-06-22T00:36:38;10.23;;;7.55;;
34805;SDS011;65084;42.196;25.326;2023-06-22T00:39:07;9.07;;;7.47;;
34805;SDS011;65084;42.196;25.326;2023-06-22T00:41:35;9.20;;;7.20;;
34805;SDS011;65084;42.196;25.326;2023-06-22T00:44:02;8.02;;;7.28;;
34805;SDS011;65084;42.196;25.326;2023-06-22T00:46:30;10.32;;;7.10;;
34805;SDS011;65084;42.196;25.326;2023-06-22T00:48:57;10.25;;;7.38;;
34805;SDS011;65084;42.196;25.326;2023-06-22T00:51:25;8.98;;;6.97;;
34805;SDS011;65084;42.196;25.326;2023-06-22T00:53:52;8.23;;;7.45;;
34805;SDS011;65084;42.196;25.326;2023-06-22T00:56:21;8.40;;;7.65;;
34805;SDS011;65084;42.196;25.326;2023-06-22T00:58:50;9.32;;;8.18;;
34805;SDS011;65084;42.196;25.326;2023-06-22T01:01:19;9.27;;;7.97;;
34805;SDS011;65084;42.196;25.326;2023-06-22T01:03:48;10.32;;;8.07;;
34805;SDS011;65084;42.196;25.326;2023-06-22T01:06:18;14.65;;;8.45;;
34805;SDS011;65084;42.196;25.326;2023-06-22T01:08:47;10.98;;;8.82;;
34805;SDS011;65084;42.196;25.326;2023-06-22T01:11:16;8.88;;;7.97;;
34805;SDS011;65084;42.196;25.326;2023-06-22T01:13:48;9.30;;;8.40;;
34805;SDS011;65084;42.196;25.326;2023-06-22T01:16:18;9.63;;;8.20;;
34805;SDS011;65084;42.196;25.326;2023-06-22T01:18:47;8.85;;;8.05;;
34805;SDS011;65084;42.196;25.326;2023-06-22T01:21:16;9.27;;;8.38;;
34805;SDS011;65084;42.196;25.326;2023-06-22T01:23:51;8.88;;;8.18;;
34805;SDS011;65084;42.196;25.326;2023-06-22T01:26:22;10.88;;;8.25;;
34805;SDS011;65084;42.196;25.326;2023-06-22T01:28:54;13.98;;;9.15;;
34805;SDS011;65084;42.196;25.326;2023-06-22T01:31:23;9.07;;;8.18;;
34805;SDS011;65084;42.196;25.326;2023-06-22T01:33:51;13.40;;;9.13;;
34805;SDS011;65084;42.196;25.326;2023-06-22T01:36:19;9.70;;;8.80;;
34805;SDS011;65084;42.196;25.326;2023-06-22T01:38:48;9.95;;;8.43;;
34805;SDS011;65084;42.196;25.326;2023-06-22T01:41:16;10.02;;;9.05;;
34805;SDS011;65084;42.196;25.326;2023-06-22T01:43:43;9.02;;;8.23;;
34805;SDS011;65084;42.196;25.326;2023-06-22T01:46:12;13.10;;;8.95;;
34805;SDS011;65084;42.196;25.326;2023-06-22T01:48:40;12.20;;;9.27;;
34805;SDS011;65084;42.196;25.326;2023-06-22T01:51:07;10.15;;;9.15;;
34805;SDS011;65084;42.196;25.326;2023-06-22T01:53:35;12.43;;;8.85;;
34805;SDS011;65084;42.196;25.326;2023-06-22T01:56:02;9.25;;;8.35;;
34805;SDS011;65084;42.196;25.326;2023-06-22T01:58:30;11.07;;;8.50;;
34805;SDS011;65084;42.196;25.326;2023-06-22T02:01:00;15.73;;;9.38;;
34805;SDS011;65084;42.196;25.326;2023-06-22T02:03:32;12.48;;;9.48;;
34805;SDS011;65084;42.196;25.326;2023-06-22T02:06:03;13.65;;;8.85;;
34805;SDS011;65084;42.196;25.326;2023-06-22T02:08:32;14.10;;;9.43;;
34805;SDS011;65084;42.196;25.326;2023-06-22T02:11:00;10.20;;;9.20;;
34805;SDS011;65084;42.196;25.326;2023-06-22T02:13:29;10.65;;;8.98;;
34805;SDS011;65084;42.196;25.326;2023-06-22T02:15:57;11.93;;;9.88;;
34805;SDS011;65084;42.196;25.326;2023-06-22T02:18:25;9.82;;;8.77;;
34805;SDS011;65084;42.196;25.326;2023-06-22T02:20:53;9.98;;;9.07;;
34805;SDS011;65084;42.196;25.326;2023-06-22T02:23:20;12.65;;;9.18;;
34805;SDS011;65084;42.196;25.326;2023-06-22T02:25:48;11.50;;;9.68;;
34805;SDS011;65084;42.196;25.326;2023-06-22T02:28:15;16.55;;;9.50;;
34805;SDS011;65084;42.196;25.326;2023-06-22T02:30:42;24.40;;;9.93;;
34805;SDS011;65084;42.196;25.326;2023-06-22T02:33:10;20.40;;;10.65;;
34805;SDS011;65084;42.196;25.326;2023-06-22T02:35:37;12.90;;;10.63;;
34805;SDS011;65084;42.196;25.326;2023-06-22T02:38:06;12.35;;;9.60;;
34805;SDS011;65084;42.196;25.326;2023-06-22T02:40:33;11.45;;;9.85;;
34805;SDS011;65084;42.196;25.326;2023-06-22T02:43:01;14.10;;;9.38;;
34805;SDS011;65084;42.196;25.326;2023-06-22T02:45:28;10.40;;;9.40;;
34805;SDS011;65084;42.196;25.326;2023-06-22T02:47:55;12.15;;;10.30;;
34805;SDS011;65084;42.196;25.326;2023-06-22T02:50:23;17.50;;;10.45;;
34805;SDS011;65084;42.196;25.326;2023-06-22T02:52:50;11.15;;;10.05;;
34805;SDS011;65084;42.196;25.326;2023-06-22T02:55:19;14.07;;;9.95;;
34805;SDS011;65084;42.196;25.326;2023-06-22T02:57:46;15.00;;;9.95;;
34805;SDS011;65084;42.196;25.326;2023-06-22T03:00:18;15.82;;;10.35;;
34805;SDS011;65084;42.196;25.326;2023-06-22T03:02:47;18.20;;;12.10;;
34805;SDS011;65084;42.196;25.326;2023-06-22T03:05:14;21.60;;;10.32;;
34805;SDS011;65084;42.196;25.326;2023-06-22T03:07:43;11.75;;;10.55;;
34805;SDS011;65084;42.196;25.326;2023-06-22T03:10:11;16.27;;;9.80;;
34805;SDS011;65084;42.196;25.326;2023-06-22T03:12:40;11.68;;;10.20;;
34805;SDS011;65084;42.196;25.326;2023-06-22T03:15:08;12.88;;;10.27;;
34805;SDS011;65084;42.196;25.326;2023-06-22T03:17:36;18.55;;;10.18;;
34805;SDS011;65084;42.196;25.326;2023-06-22T03:20:04;11.27;;;10.23;;
34805;SDS011;65084;42.196;25.326;2023-06-22T03:22:34;11.38;;;10.27;;
34805;SDS011;65084;42.196;25.326;2023-06-22T03:25:02;14.05;;;10.75;;
34805;SDS011;65084;42.196;25.326;2023-06-22T03:27:29;10.45;;;9.55;;
34805;SDS011;65084;42.196;25.326;2023-06-22T03:29:58;10.88;;;9.77;;
34805;SDS011;65084;42.196;25.326;2023-06-22T03:32:26;10.82;;;9.45;;
34805;SDS011;65084;42.196;25.326;2023-06-22T03:34:53;10.27;;;9.23;;
34805;SDS011;65084;42.196;25.326;2023-06-22T03:37:23;43.03;;;11.05;;
34805;SDS011;65084;42.196;25.326;2023-06-22T03:39:51;22.17;;;9.00;;
34805;SDS011;65084;42.196;25.326;2023-06-22T03:42:18;11.10;;;9.07;;
34805;SDS011;65084;42.196;25.326;2023-06-22T03:44:45;23.45;;;9.00;;
34805;SDS011;65084;42.196;25.326;2023-06-22T03:47:14;9.95;;;9.00;;
34805;SDS011;65084;42.196;25.326;2023-06-22T03:49:41;21.45;;;8.80;;
34805;SDS011;65084;42.196;25.326;2023-06-22T03:52:09;12.23;;;9.25;;
34805;SDS011;65084;42.196;25.326;2023-06-22T03:54:36;12.45;;;9.38;;
34805;SDS011;65084;42.196;25.326;2023-06-22T03:57:04;10.45;;;9.15;;
34805;SDS011;65084;42.196;25.326;2023-06-22T03:59:31;9.27;;;8.38;;
34805;SDS011;65084;42.196;25.326;2023-06-22T04:01:59;10.07;;;8.63;;
34805;SDS011;65084;42.196;25.326;2023-06-22T04:04:27;11.75;;;8.70;;
34805;SDS011;65084;42.196;25.326;2023-06-22T04:06:55;11.50;;;9.07;;
34805;SDS011;65084;42.196;25.326;2023-06-22T04:09:22;12.63;;;9.00;;
34805;SDS011;65084;42.196;25.326;2023-06-22T04:11:49;10.32;;;8.32;;
34805;SDS011;65084;42.196;25.326;2023-06-22T04:14:17;11.80;;;8.60;;
34805;SDS011;65084;42.196;25.326;2023-06-22T04:16:44;11.43;;;8.80;;
34805;SDS011;65084;42.196;25.326;2023-06-22T04:19:11;12.10;;;9.13;;
34805;SDS011;65084;42.196;25.326;2023-06-22T04:21:43;11.13;;;9.07;;
34805;SDS011;65084;42.196;25.326;2023-06-22T04:24:10;10.13;;;8.63;;
34805;SDS011;65084;42.196;25.326;2023-06-22T04:26:37;9.80;;;8.80;;
34805;SDS011;65084;42.196;25.326;2023-06-22T04:29:07;17.33;;;9.10;;
34805;SDS011;65084;42.196;25.326;2023-06-22T04:31:34;16.30;;;8.95;;
34805;SDS011;65084;42.196;25.326;2023-06-22T04:34:02;17.15;;;8.95;;
34805;SDS011;65084;42.196;25.326;2023-06-22T04:36:32;11.00;;;8.85;;
34805;SDS011;65084;42.196;25.326;2023-06-22T04:39:04;17.92;;;9.52;;
34805;SDS011;65084;42.196;25.326;2023-06-22T04:41:32;10.25;;;8.55;;
34805;SDS011;65084;42.196;25.326;2023-06-22T04:44:07;12.02;;;8.38;;
34805;SDS011;65084;42.196;25.326;2023-06-22T04:46:34;11.45;;;8.65;;
34805;SDS011;65084;42.196;25.326;2023-06-22T04:49:03;9.48;;;8.27;;
34805;SDS011;65084;42.196;25.326;2023-06-22T04:51:36;14.00;;;9.27;;
34805;SDS011;65084;42.196;25.326;2023-06-22T04:54:05;16.83;;;8.90;;
34805;SDS011;65084;42.196;25.326;2023-06-22T04:56:32;23.38;;;8.93;;
34805;SDS011;65084;42.196;25.326;2023-06-22T04:58:59;11.65;;;8.65;;
34805;SDS011;65084;42.196;25.326;2023-06-22T05:01:28;10.25;;;8.80;;
34805;SDS011;65084;42.196;25.326;2023-06-22T05:03:57;21.08;;;10.27;;
34805;SDS011;65084;42.196;25.326;2023-06-22T05:06:26;10.55;;;9.05;;
34805;SDS011;65084;42.196;25.326;2023-06-22T05:08:53;10.93;;;9.52;;
34805;SDS011;65084;42.196;25.326;2023-06-22T05:11:24;11.02;;;9.93;;
34805;SDS011;65084;42.196;25.326;2023-06-22T05:13:52;11.15;;;9.73;;
34805;SDS011;65084;42.196;25.326;2023-06-22T05:16:20;12.70;;;10.15;;
34805;SDS011;65084;42.196;25.326;2023-06-22T05:18:49;9.90;;;9.00;;
34805;SDS011;65084;42.196;25.326;2023-06-22T05:21:17;11.95;;;9.73;;
34805;SDS011;65084;42.196;25.326;2023-06-22T05:23:45;13.45;;;10.02;;
34805;SDS011;65084;42.196;25.326;2023-06-22T05:26:12;11.50;;;10.40;;
34805;SDS011;65084;42.196;25.326;2023-06-22T05:28:41;12.55;;;11.07;;
34805;SDS011;65084;42.196;25.326;2023-06-22T05:31:11;12.25;;;10.15;;
34805;SDS011;65084;42.196;25.326;2023-06-22T05:33:38;19.98;;;11.23;;
34805;SDS011;65084;42.196;25.326;2023-06-22T05:36:05;13.93;;;10.65;;
34805;SDS011;65084;42.196;25.326;2023-06-22T05:38:32;10.98;;;9.68;;
34805;SDS011;65084;42.196;25.326;2023-06-22T05:41:00;13.60;;;9.65;;
34805;SDS011;65084;42.196;25.326;2023-06-22T05:43:27;18.13;;;9.48;;
34805;SDS011;65084;42.196;25.326;2023-06-22T05:45:56;10.50;;;9.45;;
34805;SDS011;65084;42.196;25.326;2023-06-22T05:48:23;11.13;;;9.98;;
34805;SDS011;65084;42.196;25.326;2023-06-22T05:50:51;10.85;;;9.85;;
34805;SDS011;65084;42.196;25.326;2023-06-22T05:53:18;12.88;;;9.20;;
34805;SDS011;65084;42.196;25.326;2023-06-22T05:55:45;10.00;;;9.05;;
34805;SDS011;65084;42.196;25.326;2023-06-22T05:58:13;9.45;;;8.65;;
34805;SDS011;65084;42.196;25.326;2023-06-22T06:00:40;10.13;;;8.90;;
34805;SDS011;65084;42.196;25.326;2023-06-22T06:03:09;10.55;;;8.52;;
34805;SDS011;65084;42.196;25.326;2023-06-22T06:05:37;10.88;;;9.07;;
34805;SDS011;65084;42.196;25.326;2023-06-22T06:08:05;9.75;;;8.75;;
34805;SDS011;65084;42.196;25.326;2023-06-22T06:10:33;10.32;;;9.45;;
34805;SDS011;65084;42.196;25.326;2023-06-22T06:13:00;11.35;;;9.25;;
34805;SDS011;65084;42.196;25.326;2023-06-22T06:15:29;10.73;;;9.75;;
34805;SDS011;65084;42.196;25.326;2023-06-22T06:17:57;9.85;;;9.00;;
34805;SDS011;65084;42.196;25.326;2023-06-22T06:20:26;10.27;;;9.38;;
34805;SDS011;65084;42.196;25.326;2023-06-22T06:22:54;9.93;;;8.95;;
34805;SDS011;65084;42.196;25.326;2023-06-22T06:25:22;9.82;;;8.93;;
34805;SDS011;65084;42.196;25.326;2023-06-22T06:27:50;13.23;;;9.10;;
34805;SDS011;65084;42.196;25.326;2023-06-22T06:30:19;11.80;;;8.95;;
34805;SDS011;65084;42.196;25.326;2023-06-22T06:32:47;10.25;;;9.35;;
34805;SDS011;65084;42.196;25.326;2023-06-22T06:35:15;15.30;;;9.48;;
34805;SDS011;65084;42.196;25.326;2023-06-22T06:37:44;11.18;;;8.98;;
34805;SDS011;65084;42.196;25.326;2023-06-22T06:40:12;16.02;;;9.07;;
34805;SDS011;65084;42.196;25.326;2023-06-22T06:42:40;9.73;;;8.60;;
34805;SDS011;65084;42.196;25.326;2023-06-22T06:45:09;9.38;;;8.52;;
34805;SDS011;65084;42.196;25.326;2023-06-22T06:47:37;10.50;;;9.40;;
34805;SDS011;65084;42.196;25.326;2023-06-22T06:50:05;12.13;;;9.00;;
34805;SDS011;65084;42.196;25.326;2023-06-22T06:52:32;12.45;;;9.75;;
34805;SDS011;65084;42.196;25.326;2023-06-22T06:55:01;10.27;;;8.68;;
34805;SDS011;65084;42.196;25.326;2023-06-22T06:57:30;9.73;;;8.82;;
34805;SDS011;65084;42.196;25.326;2023-06-22T06:59:59;10.45;;;9.55;;
34805;SDS011;65084;42.196;25.326;2023-06-22T07:02:26;11.45;;;9.55;;
34805;SDS011;65084;42.196;25.326;2023-06-22T07:04:54;10.30;;;9.07;;
34805;SDS011;65084;42.196;25.326;2023-06-22T07:07:21;13.38;;;9.02;;
34805;SDS011;65084;42.196;25.326;2023-06-22T07:09:48;13.32;;;9.82;;
34805;SDS011;65084;42.196;25.326;2023-06-22T07:12:17;11.38;;;9.57;;
34805;SDS011;65084;42.196;25.326;2023-06-22T07:14:44;9.38;;;8.63;;
34805;SDS011;65084;42.196;25.326;2023-06-22T07:17:12;10.65;;;9.52;;
34805;SDS011;65084;42.196;25.326;2023-06-22T07:19:40;18.40;;;8.95;;
34805;SDS011;65084;42.196;25.326;2023-06-22T07:22:07;9.32;;;8.52;;
34805;SDS011;65084;42.196;25.326;2023-06-22T07:24:34;10.50;;;9.15;;
34805;SDS011;65084;42.196;25.326;2023-06-22T07:27:02;9.68;;;8.68;;
34805;SDS011;65084;42.196;25.326;2023-06-22T07:29:33;9.27;;;8.38;;
34805;SDS011;65084;42.196;25.326;2023-06-22T07:32:01;10.20;;;7.57;;
34805;SDS011;65084;42.196;25.326;2023-06-22T07:34:30;9.00;;;8.18;;
34805;SDS011;65084;42.196;25.326;2023-06-22T07:36:58;10.75;;;8.95;;
34805;SDS011;65084;42.196;25.326;2023-06-22T07:39:26;8.18;;;7.45;;
34805;SDS011;65084;42.196;25.326;2023-06-22T07:41:53;12.02;;;7.63;;
34805;SDS011;65084;42.196;25.326;2023-06-22T07:44:20;8.73;;;7.88;;
34805;SDS011;65084;42.196;25.326;2023-06-22T07:46:49;8.88;;;7.85;;
34805;SDS011;65084;42.196;25.326;2023-06-22T07:49:16;9.23;;;7.95;;
34805;SDS011;65084;42.196;25.326;2023-06-22T07:51:44;8.48;;;7.78;;
34805;SDS011;65084;42.196;25.326;2023-06-22T07:54:11;9.88;;;8.32;;
34805;SDS011;65084;42.196;25.326;2023-06-22T07:56:40;9.95;;;7.88;;
34805;SDS011;65084;42.196;25.326;2023-06-22T07:59:08;8.85;;;7.97;;
34805;SDS011;65084;42.196;25.326;2023-06-22T08:01:35;9.10;;;8.20;;
34805;SDS011;65084;42.196;25.326;2023-06-22T08:04:04;10.10;;;7.43;;
34805;SDS011;65084;42.196;25.326;2023-06-22T08:06:32;8.57;;;7.78;;
34805;SDS011;65084;42.196;25.326;2023-06-22T08:08:59;8.05;;;7.45;;
34805;SDS011;65084;42.196;25.326;2023-06-22T08:11:26;8.15;;;7.45;;
34805;SDS011;65084;42.196;25.326;2023-06-22T08:13:53;8.80;;;7.75;;
34805;SDS011;65084;42.196;25.326;2023-06-22T08:16:23;9.45;;;8.45;;
34805;SDS011;65084;42.196;25.326;2023-06-22T08:18:50;8.75;;;8.05;;
34805;SDS011;65084;42.196;25.326;2023-06-22T08:21:19;11.38;;;7.70;;
34805;SDS011;65084;42.196;25.326;2023-06-22T08:23:47;9.23;;;8.02;;
34805;SDS011;65084;42.196;25.326;2023-06-22T08:26:14;10.23;;;7.35;;
34805;SDS011;65084;42.196;25.326;2023-06-22T08:28:42;10.10;;;7.88;;
34805;SDS011;65084;42.196;25.326;2023-06-22T08:31:09;12.45;;;7.70;;
34805;SDS011;65084;42.196;25.326;2023-06-22T08:33:37;9.30;;;7.78;;
34805;SDS011;65084;42.196;25.326;2023-06-22T08:36:04;8.73;;;7.78;;
34805;SDS011;65084;42.196;25.326;2023-06-22T08:38:34;9.10;;;8.18;;
34805;SDS011;65084;42.196;25.326;2023-06-22T08:41:02;8.50;;;7.85;;
34805;SDS011;65084;42.196;25.326;2023-06-22T08:43:29;8.43;;;7.63;;
34805;SDS011;65084;42.196;25.326;2023-06-22T08:45:56;8.18;;;7.32;;
34805;SDS011;65084;42.196;25.326;2023-06-22T08:48:23;8.32;;;7.47;;
34805;SDS011;65084;42.196;25.326;2023-06-22T08:50:51;9.43;;;8.52;;
34805;SDS011;65084;42.196;25.326;2023-06-22T08:53:18;8.05;;;7.40;;
34805;SDS011;65084;42.196;25.326;2023-06-22T08:55:47;8.82;;;7.97;;
34805;SDS011;65084;42.196;25.326;2023-06-22T08:58:15;10.70;;;8.45;;
34805;SDS011;65084;42.196;25.326;2023-06-22T09:00:43;8.52;;;7.82;;
34805;SDS011;65084;42.196;25.326;2023-06-22T09:03:10;13.23;;;8.10;;
34805;SDS011;65084;42.196;25.326;2023-06-22T09:05:38;12.55;;;8.15;;
34805;SDS011;65084;42.196;25.326;2023-06-22T09:08:05;8.63;;;7.65;;
34805;SDS011;65084;42.196;25.326;2023-06-22T09:10:32;8.32;;;7.63;;
34805;SDS011;65084;42.196;25.326;2023-06-22T09:13:01;16.85;;;7.80;;
34805;SDS011;65084;42.196;25.326;2023-06-22T09:15:28;10.95;;;7.93;;
34805;SDS011;65084;42.196;25.326;2023-06-22T09:17:55;8.85;;;7.95;;
34805;SDS011;65084;42.196;25.326;2023-06-22T09:20:23;8.77;;;7.88;;
34805;SDS011;65084;42.196;25.326;2023-06-22T09:22:50;9.20;;;8.38;;
34805;SDS011;65084;42.196;25.326;2023-06-22T09:25:18;9.18;;;7.80;;
34805;SDS011;65084;42.196;25.326;2023-06-22T09:27:46;8.00;;;7.40;;
34805;SDS011;65084;42.196;25.326;2023-06-22T09:30:15;8.82;;;7.80;;
34805;SDS011;65084;42.196;25.326;2023-06-22T09:32:42;9.48;;;8.57;;
34805;SDS011;65084;42.196;25.326;2023-06-22T09:35:10;8.82;;;7.90;;
34805;SDS011;65084;42.196;25.326;2023-06-22T09:37:38;11.10;;;8.55;;
34805;SDS011;65084;42.196;25.326;2023-06-22T09:40:06;8.05;;;7.38;;
34805;SDS011;65084;42.196;25.326;2023-06-22T09:42:36;9.32;;;8.25;;
34805;SDS011;65084;42.196;25.326;2023-06-22T09:45:03;8.65;;;7.28;;
34805;SDS011;65084;42.196;25.326;2023-06-22T09:47:32;18.83;;;8.05;;
34805;SDS011;65084;42.196;25.326;2023-06-22T09:49:59;21.60;;;8.68;;
34805;SDS011;65084;42.196;25.326;2023-06-22T09:52:27;8.90;;;7.20;;
34805;SDS011;65084;42.196;25.326;2023-06-22T09:54:55;8.63;;;7.68;;
34805;SDS011;65084;42.196;25.326;2023-06-22T09:57:22;11.02;;;7.80;;
34805;SDS011;65084;42.196;25.326;2023-06-22T09:59:49;8.68;;;7.75;;
34805;SDS011;65084;42.196;25.326;2023-06-22T10:02:16;8.88;;;7.90;;
34805;SDS011;65084;42.196;25.326;2023-06-22T10:04:45;9.13;;;7.63;;
34805;SDS011;65084;42.196;25.326;2023-06-22T10:07:12;10.10;;;7.90;;
34805;SDS011;65084;42.196;25.326;2023-06-22T10:09:40;7.80;;;7.20;;
34805;SDS011;65084;42.196;25.326;2023-06-22T10:12:08;8.45;;;7.65;;
34805;SDS011;65084;42.196;25.326;2023-06-22T10:14:35;8.10;;;7.35;;
34805;SDS011;65084;42.196;25.326;2023-06-22T10:17:03;8.35;;;7.53;;
34805;SDS011;65084;42.196;25.326;2023-06-22T10:19:32;8.40;;;7.70;;
34805;SDS011;65084;42.196;25.326;2023-06-22T10:22:03;8.43;;;7.72;;
34805;SDS011;65084;42.196;25.326;2023-06-22T10:24:31;8.27;;;7.60;;
34805;SDS011;65084;42.196;25.326;2023-06-22T10:26:58;8.52;;;7.72;;
34805;SDS011;65084;42.196;25.326;2023-06-22T10:29:25;9.10;;;7.20;;
34805;SDS011;65084;42.196;25.326;2023-06-22T10:31:53;8.35;;;7.65;;
34805;SDS011;65084;42.196;25.326;2023-06-22T10:34:20;9.20;;;7.72;;
34805;SDS011;65084;42.196;25.326;2023-06-22T10:36:47;7.90;;;7.28;;
34805;SDS011;65084;42.196;25.326;2023-06-22T10:39:16;9.05;;;7.32;;
34805;SDS011;65084;42.196;25.326;2023-06-22T10:41:43;8.68;;;7.22;;
34805;SDS011;65084;42.196;25.326;2023-06-22T10:44:10;13.20;;;7.15;;
34805;SDS011;65084;42.196;25.326;2023-06-22T10:46:38;10.68;;;7.78;;
34805;SDS011;65084;42.196;25.326;2023-06-22T10:49:06;12.32;;;7.88;;
34805;SDS011;65084;42.196;25.326;2023-06-22T10:51:33;9.70;;;7.32;;
34805;SDS011;65084;42.196;25.326;2023-06-22T10:54:00;8.73;;;7.22;;
34805;SDS011;65084;42.196;25.326;2023-06-22T10:56:30;17.38;;;7.47;;
34805;SDS011;65084;42.196;25.326;2023-06-22T10:59:00;8.00;;;7.30;;
34805;SDS011;65084;42.196;25.326;2023-06-22T11:01:28;8.32;;;7.53;;
34805;SDS011;65084;42.196;25.326;2023-06-22T11:03:56;7.72;;;6.68;;
34805;SDS011;65084;42.196;25.326;2023-06-22T11:06:23;8.18;;;7.15;;
34805;SDS011;65084;42.196;25.326;2023-06-22T11:08:50;7.93;;;7.13;;
34805;SDS011;65084;42.196;25.326;2023-06-22T11:11:18;9.43;;;6.97;;
34805;SDS011;65084;42.196;25.326;2023-06-22T11:13:46;7.85;;;7.00;;
34805;SDS011;65084;42.196;25.326;2023-06-22T11:16:14;7.35;;;6.75;;
34805;SDS011;65084;42.196;25.326;2023-06-22T11:18:41;7.55;;;6.95;;
34805;SDS011;65084;42.196;25.326;2023-06-22T11:21:08;8.52;;;7.20;;
34805;SDS011;65084;42.196;25.326;2023-06-22T11:23:36;10.05;;;7.05;;
34805;SDS011;65084;42.196;25.326;2023-06-22T11:26:03;7.63;;;7.05;;
34805;SDS011;65084;42.196;25.326;2023-06-22T11:28:30;8.85;;;6.68;;
34805;SDS011;65084;42.196;25.326;2023-06-22T11:30:59;12.00;;;7.28;;
34805;SDS011;65084;42.196;25.326;2023-06-22T11:33:27;10.38;;;7.45;;
34805;SDS011;65084;42.196;25.326;2023-06-22T11:35:54;8.27;;;6.93;;
34805;SDS011;65084;42.196;25.326;2023-06-22T11:38:22;7.40;;;6.45;;
34805;SDS011;65084;42.196;25.326;2023-06-22T11:40:49;8.85;;;7.60;;
34805;SDS011;65084;42.196;25.326;2023-06-22T11:43:16;10.75;;;7.18;;
34805;SDS011;65084;42.196;25.326;2023-06-22T11:45:44;8.27;;;7.38;;
34805;SDS011;65084;42.196;25.326;2023-06-22T11:48:13;8.18;;;7.60;;
34805;SDS011;65084;42.196;25.326;2023-06-22T11:50:40;8.10;;;7.38;;
34805;SDS011;65084;42.196;25.326;2023-06-22T11:53:07;9.32;;;7.10;;
34805;SDS011;65084;42.196;25.326;2023-06-22T11:55:34;8.85;;;7.28;;
34805;SDS011;65084;42.196;25.326;2023-06-22T11:58:02;9.85;;;7.13;;
34805;SDS011;65084;42.196;25.326;2023-06-22T12:00:30;7.50;;;6.90;;
34805;SDS011;65084;42.196;25.326;2023-06-22T12:02:57;8.27;;;7.53;;
34805;SDS011;65084;42.196;25.326;2023-06-22T12:05:26;14.95;;;7.22;;
34805;SDS011;65084;42.196;25.326;2023-06-22T12:07:53;7.97;;;7.32;;
34805;SDS011;65084;42.196;25.326;2023-06-22T12:10:21;7.78;;;6.97;;
34805;SDS011;65084;42.196;25.326;2023-06-22T12:12:48;11.30;;;7.53;;
34805;SDS011;65084;42.196;25.326;2023-06-22T12:15:15;8.07;;;7.25;;
34805;SDS011;65084;42.196;25.326;2023-06-22T12:17:43;7.97;;;7.28;;
34805;SDS011;65084;42.196;25.326;2023-06-22T12:20:10;7.25;;;6.75;;
34805;SDS011;65084;42.196;25.326;2023-06-22T12:22:40;7.65;;;7.05;;
34805;SDS011;65084;42.196;25.326;2023-06-22T12:25:07;7.90;;;7.10;;
34805;SDS011;65084;42.196;25.326;2023-06-22T12:27:35;8.25;;;7.43;;
34805;SDS011;65084;42.196;25.326;2023-06-22T12:30:02;8.63;;;6.97;;
34805;SDS011;65084;42.196;25.326;2023-06-22T12:32:30;10.20;;;7.50;;
34805;SDS011;65084;42.196;25.326;2023-06-22T12:34:57;12.75;;;7.10;;
34805;SDS011;65084;42.196;25.326;2023-06-22T12:37:24;9.45;;;7.15;;
34805;SDS011;65084;42.196;25.326;2023-06-22T12:39:54;8.18;;;7.47;;
34805;SDS011;65084;42.196;25.326;2023-06-22T12:42:21;14.68;;;7.68;;
34805;SDS011;65084;42.196;25.326;2023-06-22T12:44:49;8.07;;;7.47;;
34805;SDS011;65084;42.196;25.326;2023-06-22T12:47:16;7.95;;;6.72;;
34805;SDS011;65084;42.196;25.326;2023-06-22T12:49:45;8.25;;;7.45;;
34805;SDS011;65084;42.196;25.326;2023-06-22T12:52:12;14.07;;;7.13;;
34805;SDS011;65084;42.196;25.326;2023-06-22T12:54:39;7.35;;;6.85;;
34805;SDS011;65084;42.196;25.326;2023-06-22T12:57:08;8.65;;;7.03;;
34805;SDS011;65084;42.196;25.326;2023-06-22T12:59:35;8.50;;;7.00;;
34805;SDS011;65084;42.196;25.326;2023-06-22T13:02:03;7.38;;;6.78;;
34805;SDS011;65084;42.196;25.326;2023-06-22T13:04:30;7.28;;;6.68;;
34805;SDS011;65084;42.196;25.326;2023-06-22T13:06:57;8.02;;;7.22;;
34805;SDS011;65084;42.196;25.326;2023-06-22T13:09:25;10.18;;;6.57;;
34805;SDS011;65084;42.196;25.326;2023-06-22T13:11:52;8.70;;;7.82;;
34805;SDS011;65084;42.196;25.326;2023-06-22T13:14:21;8.85;;;7.53;;
34805;SDS011;65084;42.196;25.326;2023-06-22T13:16:48;7.50;;;7.00;;
34805;SDS011;65084;42.196;25.326;2023-06-22T13:19:15;7.82;;;7.25;;
34805;SDS011;65084;42.196;25.326;2023-06-22T13:21:43;8.30;;;7.40;;
34805;SDS011;65084;42.196;25.326;2023-06-22T13:24:10;8.00;;;7.30;;
34805;SDS011;65084;42.196;25.326;2023-06-22T13:26:37;7.50;;;6.90;;
34805;SDS011;65084;42.196;25.326;2023-06-22T13:29:04;7.70;;;7.10;;
34805;SDS011;65084;42.196;25.326;2023-06-22T13:31:33;7.50;;;6.90;;
34805;SDS011;65084;42.196;25.326;2023-06-22T13:34:00;9.20;;;7.47;;
34805;SDS011;65084;42.196;25.326;2023-06-22T13:36:28;7.47;;;6.78;;
34805;SDS011;65084;42.196;25.326;2023-06-22T13:38:56;11.90;;;6.82;;
34805;SDS011;65084;42.196;25.326;2023-06-22T13:41:23;8.30;;;7.00;;
34805;SDS011;65084;42.196;25.326;2023-06-22T13:43:50;8.02;;;7.28;;
34805;SDS011;65084;42.196;25.326;2023-06-22T13:46:18;7.60;;;6.90;;
34805;SDS011;65084;42.196;25.326;2023-06-22T13:48:46;7.65;;;6.95;;
34805;SDS011;65084;42.196;25.326;2023-06-22T13:51:14;10.95;;;7.22;;
34805;SDS011;65084;42.196;25.326;2023-06-22T13:53:41;10.20;;;7.05;;
34805;SDS011;65084;42.196;25.326;2023-06-22T13:56:08;8.95;;;6.78;;
34805;SDS011;65084;42.196;25.326;2023-06-22T13:58:36;8.15;;;7.35;;
34805;SDS011;65084;42.196;25.326;2023-06-22T14:01:03;7.65;;;7.05;;
34805;SDS011;65084;42.196;25.326;2023-06-22T14:03:30;7.72;;;6.93;;
34805;SDS011;65084;42.196;25.326;2023-06-22T14:05:59;7.93;;;7.10;;
34805;SDS011;65084;42.196;25.326;2023-06-22T14:08:26;8.98;;;7.22;;
34805;SDS011;65084;42.196;25.326;2023-06-22T14:10:53;7.32;;;6.80;;
34805;SDS011;65084;42.196;25.326;2023-06-22T14:13:21;7.57;;;6.72;;
34805;SDS011;65084;42.196;25.326;2023-06-22T14:15:48;6.55;;;6.05;;
34805;SDS011;65084;42.196;25.326;2023-06-22T14:18:17;6.68;;;6.20;;
34805;SDS011;65084;42.196;25.326;2023-06-22T14:20:44;6.88;;;6.38;;
34805;SDS011;65084;42.196;25.326;2023-06-22T14:23:14;13.50;;;7.10;;
34805;SDS011;65084;42.196;25.326;2023-06-22T14:25:41;10.55;;;7.13;;
34805;SDS011;65084;42.196;25.326;2023-06-22T14:28:08;7.03;;;6.43;;
34805;SDS011;65084;42.196;25.326;2023-06-22T14:30:36;7.75;;;7.13;;
34805;SDS011;65084;42.196;25.326;2023-06-22T14:33:03;7.50;;;6.80;;